createdAt,value
2022-10-20T00:02:43.194Z,7.85
2022-10-20T00:05:44.633Z,7.77
2022-10-20T00:08:47.033Z,7.76
2022-10-20T00:11:48.466Z,7.71
2022-10-20T00:14:49.862Z,7.64
2022-10-20T00:17:51.343Z,7.65
2022-10-20T00:20:53.733Z,7.58
2022-10-20T00:23:55.740Z,7.50
2022-10-20T00:26:57.159Z,7.51
2022-10-20T00:29:58.567Z,7.42
2022-10-20T00:33:00.321Z,7.46
2022-10-20T00:36:03.570Z,7.42
2022-10-20T00:39:05.668Z,7.41
2022-10-20T00:42:07.092Z,7.38
2022-10-20T00:45:20.978Z,7.44
2022-10-20T00:48:28.022Z,7.38
2022-10-20T00:51:33.133Z,7.38
2022-10-20T00:54:34.717Z,7.41
2022-10-20T00:57:37.350Z,7.46
2022-10-20T01:00:42.256Z,7.41
2022-10-20T01:03:50.298Z,7.36
2022-10-20T01:06:51.743Z,7.43
2022-10-20T01:09:53.640Z,7.34
2022-10-20T01:13:15.467Z,7.35
2022-10-20T01:16:45.964Z,7.34
2022-10-20T01:20:27.723Z,7.36
2022-10-20T01:23:48.207Z,7.40
2022-10-20T01:27:19.397Z,7.41
2022-10-20T01:30:22.829Z,7.33
2022-10-20T01:33:39.541Z,7.27
2022-10-20T01:36:52.736Z,7.30
2022-10-20T01:40:01.951Z,7.25
2022-10-20T01:43:08.943Z,7.25
2022-10-20T01:46:12.315Z,7.16
2022-10-20T01:49:14.681Z,7.15
2022-10-20T01:52:17.302Z,7.19
2022-10-20T01:55:18.709Z,7.16
2022-10-20T01:58:29.264Z,7.19
2022-10-20T02:01:57.911Z,7.15
2022-10-20T02:05:25.180Z,7.13
2022-10-20T02:08:38.210Z,7.15
2022-10-20T02:11:51.895Z,7.11
2022-10-20T02:14:54.655Z,7.10
2022-10-20T02:18:03.194Z,7.13
2022-10-20T02:21:06.563Z,7.18
2022-10-20T02:24:09.926Z,7.16
2022-10-20T02:27:25.412Z,7.12
2022-10-20T02:30:26.983Z,7.11
2022-10-20T02:33:30.177Z,7.11
2022-10-20T02:36:31.615Z,7.15
2022-10-20T02:39:33.035Z,7.06
2022-10-20T02:42:34.425Z,7.04
2022-10-20T02:45:35.804Z,7.05
2022-10-20T02:48:37.256Z,7.05
2022-10-20T02:51:38.672Z,7.06
2022-10-20T02:54:40.472Z,7.10
2022-10-20T02:57:41.869Z,7.14
2022-10-20T03:00:43.264Z,7.09
2022-10-20T03:03:44.670Z,7.09
2022-10-20T03:06:46.107Z,7.14
2022-10-20T03:09:47.572Z,7.17
2022-10-20T03:12:49.018Z,7.17
2022-10-20T03:15:50.454Z,7.23
2022-10-20T03:18:51.877Z,7.15
2022-10-20T03:21:53.310Z,7.24
2022-10-20T03:24:54.729Z,7.25
2022-10-20T03:27:56.117Z,7.18
2022-10-20T03:30:58.352Z,7.30
2022-10-20T03:33:59.772Z,7.29
2022-10-20T03:37:02.057Z,7.34
2022-10-20T03:40:03.767Z,7.39
2022-10-20T03:43:05.208Z,7.42
2022-10-20T03:46:11.442Z,7.37
2022-10-20T03:49:12.835Z,7.45
2022-10-20T03:52:14.282Z,7.43
2022-10-20T03:55:16.905Z,7.47
2022-10-20T03:58:18.686Z,7.49
2022-10-20T04:01:24.274Z,7.60
2022-10-20T04:04:25.724Z,7.62
2022-10-20T04:07:27.490Z,7.58
2022-10-20T04:10:28.884Z,7.56
2022-10-20T04:13:30.304Z,7.61
2022-10-20T04:16:31.825Z,7.59
2022-10-20T04:19:33.299Z,7.62
2022-10-20T04:22:35.119Z,7.62
2022-10-20T04:25:42.932Z,7.62
2022-10-20T04:28:44.371Z,7.64
2022-10-20T04:31:48.286Z,7.59
2022-10-20T04:34:50.811Z,7.61
2022-10-20T04:37:54.220Z,7.60
2022-10-20T04:41:00.299Z,7.61
2022-10-20T04:44:04.808Z,7.64
2022-10-20T04:47:06.200Z,7.68
2022-10-20T04:50:08.309Z,7.67
2022-10-20T04:53:09.731Z,7.65
2022-10-20T04:56:16.873Z,7.64
2022-10-20T04:59:18.270Z,7.69
2022-10-20T05:02:19.672Z,7.66
2022-10-20T05:05:21.125Z,7.66
2022-10-20T05:08:22.550Z,7.64
2022-10-20T05:11:25.468Z,7.63
2022-10-20T05:14:27.105Z,7.64
2022-10-20T05:17:29.960Z,7.65
2022-10-20T05:20:36.839Z,7.71
2022-10-20T05:23:47.577Z,7.66
2022-10-20T05:26:48.964Z,7.61
2022-10-20T05:29:50.458Z,7.57
2022-10-20T05:32:51.852Z,7.61
2022-10-20T05:35:53.240Z,7.69
2022-10-20T05:38:55.795Z,7.77
2022-10-20T05:41:57.215Z,7.72
2022-10-20T05:44:58.622Z,7.72
2022-10-20T05:48:00.012Z,7.69
2022-10-20T05:51:17.174Z,7.71
2022-10-20T05:54:18.810Z,7.74
2022-10-20T05:57:20.651Z,7.73
2022-10-20T06:00:22.178Z,7.75
2022-10-20T06:03:26.083Z,7.78
2022-10-20T06:06:30.774Z,7.76
2022-10-20T06:09:32.576Z,7.76
2022-10-20T06:12:35.402Z,7.77
2022-10-20T06:15:36.952Z,7.80
2022-10-20T06:18:39.157Z,7.87
2022-10-20T06:21:40.646Z,7.87
2022-10-20T06:24:42.041Z,7.85
2022-10-20T06:27:43.471Z,7.88
2022-10-20T06:30:44.873Z,7.94
2022-10-20T06:33:47.571Z,7.98
2022-10-20T06:36:50.014Z,8.06
2022-10-20T06:39:53.940Z,8.06
2022-10-20T06:46:04.782Z,8.12
2022-10-20T06:49:07.331Z,8.14
2022-10-20T06:52:08.750Z,8.22
2022-10-20T06:55:10.205Z,8.35
2022-10-20T06:58:11.738Z,8.45
2022-10-20T07:01:24.900Z,8.53
2022-10-20T07:04:26.345Z,8.65
2022-10-20T07:07:27.763Z,8.69
2022-10-20T07:10:29.209Z,8.72
2022-10-20T07:13:31.696Z,8.76
2022-10-20T07:16:34.873Z,8.85
2022-10-20T07:19:36.726Z,8.95
2022-10-20T07:22:38.645Z,8.98
2022-10-20T07:25:40.321Z,9.02
2022-10-20T07:28:44.576Z,9.12
2022-10-20T07:31:46.884Z,9.18
2022-10-20T07:34:48.319Z,9.28
2022-10-20T07:37:50.293Z,9.30
2022-10-20T07:40:52.656Z,9.38
2022-10-20T07:43:55.504Z,9.56
2022-10-20T07:46:56.955Z,9.57
2022-10-20T07:49:58.453Z,9.65
2022-10-20T07:52:59.860Z,9.74
2022-10-20T07:56:01.290Z,9.75
2022-10-20T07:59:03.337Z,9.79
2022-10-20T08:02:04.934Z,9.88
2022-10-20T08:05:07.675Z,9.96
2022-10-20T08:08:09.073Z,10.04
2022-10-20T08:11:10.843Z,10.09
2022-10-20T08:14:12.289Z,10.03
2022-10-20T08:17:13.681Z,10.09
2022-10-20T08:20:27.226Z,10.12
2022-10-20T08:23:28.821Z,10.09
2022-10-20T08:26:30.214Z,10.15
2022-10-20T08:29:31.621Z,10.18
2022-10-20T08:32:33.224Z,10.19
2022-10-20T08:35:34.638Z,10.27
2022-10-20T08:38:37.815Z,10.35
2022-10-20T08:42:03.195Z,10.32
2022-10-20T08:45:06.607Z,10.39
2022-10-20T08:48:16.279Z,10.49
2022-10-20T08:51:38.140Z,10.51
2022-10-20T08:54:39.616Z,10.54
2022-10-20T08:57:41.384Z,10.61
2022-10-20T09:00:43.748Z,10.67
2022-10-20T09:03:45.386Z,10.69
2022-10-20T09:06:51.009Z,10.72
2022-10-20T09:09:54.332Z,10.82
2022-10-20T09:12:56.139Z,10.84
2022-10-20T09:16:02.900Z,10.99
2022-10-20T09:19:07.457Z,11.05
2022-10-20T09:22:13.355Z,11.17
2022-10-20T09:25:20.891Z,11.28
2022-10-20T09:28:25.768Z,11.31
2022-10-20T09:31:40.105Z,11.46
2022-10-20T09:34:41.517Z,11.48
2022-10-20T09:37:45.242Z,11.43
2022-10-20T09:41:02.135Z,11.53
2022-10-20T09:44:08.932Z,11.73
2022-10-20T09:47:13.487Z,11.90
2022-10-20T09:50:23.351Z,11.93
2022-10-20T09:53:40.896Z,11.92
2022-10-20T09:56:44.308Z,12.06
2022-10-20T09:59:48.217Z,12.12
2022-10-20T10:03:07.523Z,12.18
2022-10-20T10:06:21.175Z,12.40
2022-10-20T10:09:34.722Z,12.40
2022-10-20T10:12:36.888Z,12.27
2022-10-20T10:15:40.521Z,12.35
2022-10-20T10:18:53.967Z,12.37
2022-10-20T10:21:58.449Z,12.38
2022-10-20T10:25:01.045Z,12.34
2022-10-20T10:28:24.182Z,12.28
2022-10-20T10:31:26.381Z,12.28
2022-10-20T10:34:36.874Z,12.36
2022-10-20T10:37:41.351Z,12.43
2022-10-20T10:40:53.838Z,12.54
2022-10-20T10:44:07.505Z,12.50
2022-10-20T10:47:17.893Z,12.58
2022-10-20T10:50:58.834Z,12.73
2022-10-20T10:54:32.558Z,12.71
2022-10-20T10:57:46.380Z,12.77
2022-10-20T11:00:59.819Z,12.76
2022-10-20T11:04:36.938Z,12.61
2022-10-20T11:07:50.473Z,12.55
2022-10-20T11:11:06.576Z,12.48
2022-10-20T11:14:37.862Z,12.55
2022-10-20T11:18:02.866Z,12.63
2022-10-20T11:21:39.850Z,12.64
2022-10-20T11:24:56.494Z,12.71
2022-10-20T11:27:58.257Z,12.73
2022-10-20T11:31:00.721Z,12.87
2022-10-20T11:34:10.598Z,13.04
2022-10-20T11:37:17.993Z,13.12
2022-10-20T11:40:32.231Z,13.36
2022-10-20T11:43:46.549Z,13.46
2022-10-20T11:46:50.947Z,13.65
2022-10-20T11:49:52.593Z,13.64
2022-10-20T11:53:17.966Z,13.48
2022-10-20T11:56:58.627Z,13.45
2022-10-20T12:00:02.921Z,13.31
2022-10-20T12:03:21.394Z,13.33
2022-10-20T12:06:41.570Z,13.23
2022-10-20T12:10:14.042Z,13.14
2022-10-20T12:13:40.794Z,13.14
2022-10-20T12:16:54.144Z,13.10
2022-10-20T12:20:20.283Z,13.09
2022-10-20T12:23:43.529Z,13.12
2022-10-20T12:27:06.802Z,13.13
2022-10-20T12:30:17.594Z,13.21
2022-10-20T12:33:34.074Z,13.25
2022-10-20T12:36:37.682Z,13.24
2022-10-20T12:39:39.434Z,13.27
2022-10-20T12:42:47.973Z,13.27
2022-10-20T12:45:50.898Z,13.31
2022-10-20T12:48:55.987Z,13.35
2022-10-20T12:51:59.082Z,13.23
2022-10-20T12:55:08.418Z,13.20
2022-10-20T12:58:34.216Z,13.27
2022-10-20T13:02:09.616Z,13.42
2022-10-20T13:05:13.764Z,13.47
2022-10-20T13:08:21.181Z,13.59
2022-10-20T13:11:37.791Z,13.64
2022-10-20T13:14:48.331Z,13.62
2022-10-20T13:17:57.128Z,13.73
2022-10-20T13:21:08.404Z,13.74
2022-10-20T13:24:14.885Z,13.90
2022-10-20T13:27:16.545Z,14.02
2022-10-20T13:30:21.983Z,14.10
2022-10-20T13:34:08.924Z,14.33
2022-10-20T13:37:38.229Z,14.88
2022-10-20T13:40:56.144Z,15.13
2022-10-20T13:44:23.249Z,15.39
2022-10-20T13:47:45.761Z,15.40
2022-10-20T13:50:55.866Z,15.39
2022-10-20T13:54:01.762Z,15.69
2022-10-20T13:57:04.006Z,15.69
2022-10-20T14:00:21.884Z,15.65
2022-10-20T14:03:23.335Z,15.66
2022-10-20T14:06:29.888Z,15.75
2022-10-20T14:09:31.432Z,15.68
2022-10-20T14:12:33.297Z,15.53
2022-10-20T14:15:36.937Z,15.49
2022-10-20T14:18:38.391Z,15.56
2022-10-20T14:21:46.190Z,15.61
2022-10-20T14:24:50.196Z,15.80
2022-10-20T14:27:51.683Z,15.83
2022-10-20T14:30:53.180Z,15.84
2022-10-20T14:33:54.657Z,15.88
2022-10-20T14:36:58.139Z,15.78
2022-10-20T14:40:02.285Z,15.75
2022-10-20T14:43:11.620Z,15.77
2022-10-20T14:46:28.638Z,15.75
2022-10-20T14:49:35.188Z,15.60
2022-10-20T14:52:37.194Z,15.62
2022-10-20T14:55:38.878Z,15.61
2022-10-20T14:59:01.532Z,15.51
2022-10-20T15:02:09.027Z,15.48
2022-10-20T15:05:37.062Z,15.45
2022-10-20T15:08:38.604Z,15.45
2022-10-20T15:11:40.034Z,15.49
2022-10-20T15:14:45.010Z,15.56
2022-10-20T15:17:49.089Z,15.58
2022-10-20T15:20:52.400Z,15.68
2022-10-20T15:23:53.801Z,15.71
2022-10-20T15:26:55.906Z,15.86
2022-10-20T15:29:57.375Z,15.93
2022-10-20T15:32:59.123Z,15.96
2022-10-20T15:36:00.525Z,15.89
2022-10-20T15:39:03.674Z,15.80
2022-10-20T15:42:05.094Z,15.74
2022-10-20T15:45:17.184Z,15.53
2022-10-20T15:48:18.677Z,15.47
2022-10-20T15:51:25.423Z,15.39
2022-10-20T15:54:26.869Z,15.35
2022-10-20T15:57:28.299Z,15.34
2022-10-20T16:00:29.772Z,15.30
2022-10-20T16:03:31.227Z,15.26
2022-10-20T16:06:32.681Z,15.23
2022-10-20T16:09:34.070Z,15.20
2022-10-20T16:12:35.965Z,15.08
2022-10-20T16:15:37.582Z,14.92
2022-10-20T16:18:39.050Z,14.82
2022-10-20T16:21:40.889Z,14.64
2022-10-20T16:24:42.295Z,14.48
2022-10-20T16:27:43.862Z,14.43
2022-10-20T16:30:45.322Z,14.31
2022-10-20T16:33:46.800Z,14.23
2022-10-20T16:36:49.813Z,14.22
2022-10-20T16:39:51.437Z,14.13
2022-10-20T16:42:52.855Z,14.13
2022-10-20T16:45:54.756Z,13.98
2022-10-20T16:48:56.156Z,14.02
2022-10-20T16:51:57.800Z,13.93
2022-10-20T16:54:59.342Z,13.86
2022-10-20T16:58:00.753Z,13.85
2022-10-20T17:01:07.607Z,13.83
2022-10-20T17:04:12.019Z,13.73
2022-10-20T17:07:13.884Z,13.76
2022-10-20T17:10:15.378Z,13.65
2022-10-20T17:13:17.210Z,13.59
2022-10-20T17:16:26.140Z,13.43
2022-10-20T17:19:30.325Z,13.35
2022-10-20T17:22:32.671Z,13.40
2022-10-20T17:25:34.307Z,13.41
2022-10-20T17:28:37.713Z,13.41
2022-10-20T17:31:39.172Z,13.45
2022-10-20T17:34:40.581Z,13.51
2022-10-20T17:37:42.008Z,13.52
2022-10-20T17:40:43.407Z,13.60
2022-10-20T17:43:44.868Z,13.56
2022-10-20T17:46:46.264Z,13.69
2022-10-20T17:49:47.682Z,13.63
2022-10-20T17:52:49.091Z,13.58
2022-10-20T17:55:50.485Z,13.56
2022-10-20T17:58:52.012Z,13.55
2022-10-20T18:01:53.452Z,13.58
2022-10-20T18:04:55.059Z,13.48
2022-10-20T18:07:56.489Z,13.45
2022-10-20T18:10:57.884Z,13.34
2022-10-20T18:14:00.101Z,13.33
2022-10-20T18:17:01.805Z,13.37
2022-10-20T18:20:04.144Z,13.38
2022-10-20T18:23:05.575Z,13.49
2022-10-20T18:26:09.750Z,13.45
2022-10-20T18:29:11.726Z,13.43
2022-10-20T18:32:13.122Z,13.43
2022-10-20T18:35:14.673Z,13.40
2022-10-20T18:38:16.114Z,13.33
2022-10-20T18:41:28.781Z,13.26
2022-10-20T18:47:36.930Z,13.19
2022-10-20T18:50:38.521Z,13.14
2022-10-20T18:56:47.293Z,13.20
2022-10-20T18:59:49.850Z,13.25
2022-10-20T19:02:51.272Z,13.23
2022-10-20T19:05:58.931Z,13.18
2022-10-20T19:09:09.145Z,13.10
2022-10-20T19:12:10.889Z,13.13
2022-10-20T19:15:12.322Z,13.11
2022-10-20T19:18:14.915Z,13.23
2022-10-20T19:21:17.538Z,13.18
2022-10-20T19:24:22.440Z,13.28
2022-10-20T19:27:27.498Z,13.23
2022-10-20T19:30:33.981Z,13.32
2022-10-20T19:33:35.389Z,13.35
2022-10-20T19:36:36.985Z,13.28
2022-10-20T19:39:41.403Z,13.07
2022-10-20T19:42:42.812Z,13.01
2022-10-20T19:45:47.748Z,13.03
2022-10-20T19:48:51.477Z,13.10
2022-10-20T19:51:53.195Z,13.18
2022-10-20T19:54:54.576Z,13.23
2022-10-20T19:57:55.986Z,13.21
2022-10-20T20:00:58.927Z,13.23
2022-10-20T20:04:04.224Z,13.27
2022-10-20T20:07:08.427Z,13.32
2022-10-20T20:10:10.134Z,13.28
2022-10-20T20:13:11.522Z,13.27
2022-10-20T20:16:12.904Z,13.14
2022-10-20T20:19:15.427Z,13.13
2022-10-20T20:22:16.851Z,13.10
2022-10-20T20:25:18.262Z,13.11
2022-10-20T20:28:19.674Z,13.06
2022-10-20T20:31:21.977Z,12.95
2022-10-20T20:34:23.489Z,12.83
2022-10-20T20:37:25.289Z,12.76
2022-10-20T20:40:26.761Z,12.66
2022-10-20T20:43:28.993Z,12.67
2022-10-20T20:46:30.894Z,12.57
2022-10-20T20:49:33.125Z,12.47
2022-10-20T20:52:34.722Z,12.29
2022-10-20T20:55:36.103Z,12.23
2022-10-20T20:58:38.027Z,12.20
2022-10-20T21:01:39.435Z,12.09
2022-10-20T21:04:40.914Z,12.11
2022-10-20T21:07:42.297Z,12.04
2022-10-20T21:10:43.668Z,11.98
2022-10-20T21:13:45.897Z,12.00
2022-10-20T21:16:47.339Z,11.94
2022-10-20T21:19:48.747Z,11.91
2022-10-20T21:22:50.138Z,11.91
2022-10-20T21:25:51.554Z,11.89
2022-10-20T21:28:53.295Z,11.89
2022-10-20T21:31:54.702Z,11.96
2022-10-20T21:34:56.095Z,12.06
2022-10-20T21:37:57.504Z,12.06
2022-10-20T21:41:29.739Z,12.04
2022-10-20T21:44:31.354Z,11.92
2022-10-20T21:47:32.812Z,11.82
2022-10-20T21:50:37.093Z,11.86
2022-10-20T21:53:39.288Z,11.90
2022-10-20T21:56:41.806Z,12.03
2022-10-20T21:59:43.223Z,12.03
2022-10-20T22:02:48.165Z,11.90
2022-10-20T22:05:49.714Z,11.92
2022-10-20T22:08:53.570Z,12.09
2022-10-20T22:11:56.421Z,12.04
2022-10-20T22:14:57.815Z,12.05
2022-10-20T22:17:59.202Z,12.05
2022-10-20T22:21:08.664Z,11.96
2022-10-20T22:24:14.436Z,11.96
2022-10-20T22:27:25.350Z,11.90
2022-10-20T22:30:37.275Z,11.90
2022-10-20T22:33:38.678Z,11.89
2022-10-20T22:36:40.445Z,11.91
2022-10-20T22:39:41.860Z,11.92
2022-10-20T22:42:43.335Z,11.83
2022-10-20T22:45:44.720Z,11.82
2022-10-20T22:48:46.283Z,11.83
2022-10-20T22:51:47.808Z,11.83
2022-10-20T22:54:49.215Z,11.81
2022-10-20T22:57:51.870Z,11.85
2022-10-20T23:00:53.364Z,11.88
2022-10-20T23:03:54.794Z,11.90
2022-10-20T23:10:07.239Z,12.01
2022-10-20T23:13:08.653Z,12.06
2022-10-20T23:16:11.133Z,12.14
2022-10-20T23:19:13.038Z,12.17
2022-10-20T23:22:14.504Z,12.11
2022-10-20T23:25:16.090Z,12.18
2022-10-20T23:28:18.621Z,12.21
2022-10-20T23:31:21.707Z,12.27
2022-10-20T23:34:23.377Z,12.28
2022-10-20T23:37:24.808Z,12.30
2022-10-20T23:40:26.236Z,12.35
2022-10-20T23:43:27.701Z,12.35
2022-10-20T23:46:29.143Z,12.39
2022-10-20T23:49:30.578Z,12.40
2022-10-20T23:52:32.059Z,12.39
2022-10-20T23:55:33.521Z,12.33
2022-10-20T23:58:35.372Z,12.34
